sensor_id;sensor_type;location;lat;lon;timestamp;pressure;altitude;pressure_sealevel;temperature;humidity
61645;BME280;47553;52.428;13.382;2022-12-11T00:02:00;100554.69;;;-0.77;81.48
61645;BME280;47553;52.428;13.382;2022-12-11T00:04:02;100557.81;;;-0.54;81.70
61645;BME280;47553;52.428;13.382;2022-12-11T00:06:05;100551.88;;;-0.63;81.63
61645;BME280;47553;52.428;13.382;2022-12-11T00:08:07;100550.94;;;-0.61;81.57
61645;BME280;47553;52.428;13.382;2022-12-11T00:10:08;100538.44;;;-0.44;82.72
61645;BME280;47553;52.428;13.382;2022-12-11T00:12:10;100537.41;;;-0.33;80.95
61645;BME280;47553;52.428;13.382;2022-12-11T00:14:14;100545.66;;;-0.58;81.03
61645;BME280;47553;52.428;13.382;2022-12-11T00:16:15;100547.28;;;-0.51;79.26
61645;BME280;47553;52.428;13.382;2022-12-11T00:18:27;100553.66;;;-0.67;80.79
61645;BME280;47553;52.428;13.382;2022-12-11T00:20:28;100545.28;;;-0.90;81.73
61645;BME280;47553;52.428;13.382;2022-12-11T00:22:33;100538.22;;;-0.84;81.88
61645;BME280;47553;52.428;13.382;2022-12-11T00:24:35;100544.75;;;-0.55;83.46
61645;BME280;47553;52.428;13.382;2022-12-11T00:26:36;100540.44;;;-0.58;81.89
61645;BME280;47553;52.428;13.382;2022-12-11T00:28:38;100529.19;;;-0.64;82.53
61645;BME280;47553;52.428;13.382;2022-12-11T00:30:41;100544.22;;;-0.77;82.66
61645;BME280;47553;52.428;13.382;2022-12-11T00:32:43;100540.81;;;-0.84;83.11
61645;BME280;47553;52.428;13.382;2022-12-11T00:34:45;100545.94;;;-0.76;83.06
61645;BME280;47553;52.428;13.382;2022-12-11T00:36:47;100536.25;;;-0.71;82.75
61645;BME280;47553;52.428;13.382;2022-12-11T00:38:49;100549.19;;;-0.60;82.56
61645;BME280;47553;52.428;13.382;2022-12-11T00:40:51;100540.66;;;-0.73;82.23
61645;BME280;47553;52.428;13.382;2022-12-11T00:42:52;100534.56;;;-0.74;82.49
61645;BME280;47553;52.428;13.382;2022-12-11T00:44:54;100540.63;;;-0.70;82.09
61645;BME280;47553;52.428;13.382;2022-12-11T00:46:57;100532.38;;;-0.46;80.66
61645;BME280;47553;52.428;13.382;2022-12-11T00:48:58;100542.31;;;-0.66;80.64
61645;BME280;47553;52.428;13.382;2022-12-11T00:51:00;100543.13;;;-0.64;81.33
61645;BME280;47553;52.428;13.382;2022-12-11T00:53:02;100542.50;;;-0.80;81.84
61645;BME280;47553;52.428;13.382;2022-12-11T00:55:04;100532.63;;;-0.61;81.65
61645;BME280;47553;52.428;13.382;2022-12-11T00:57:06;100542.31;;;-0.66;81.50
61645;BME280;47553;52.428;13.382;2022-12-11T00:59:08;100543.06;;;-0.59;82.08
61645;BME280;47553;52.428;13.382;2022-12-11T01:01:12;100533.31;;;-0.50;82.60
61645;BME280;47553;52.428;13.382;2022-12-11T01:03:16;100531.56;;;-0.51;82.80
61645;BME280;47553;52.428;13.382;2022-12-11T01:05:18;100531.25;;;-0.85;81.07
61645;BME280;47553;52.428;13.382;2022-12-11T01:07:19;100539.75;;;-0.71;82.68
61645;BME280;47553;52.428;13.382;2022-12-11T01:09:21;100539.69;;;-0.66;83.00
61645;BME280;47553;52.428;13.382;2022-12-11T01:11:22;100534.78;;;-0.89;82.58
61645;BME280;47553;52.428;13.382;2022-12-11T01:13:26;100542.56;;;-0.84;83.25
61645;BME280;47553;52.428;13.382;2022-12-11T01:15:29;100539.06;;;-0.83;82.96
61645;BME280;47553;52.428;13.382;2022-12-11T01:17:30;100548.69;;;-0.84;82.32
61645;BME280;47553;52.428;13.382;2022-12-11T01:19:33;100549.50;;;-0.80;83.60
61645;BME280;47553;52.428;13.382;2022-12-11T01:21:35;100543.41;;;-0.81;83.89
61645;BME280;47553;52.428;13.382;2022-12-11T01:23:37;100543.88;;;-0.56;83.25
61645;BME280;47553;52.428;13.382;2022-12-11T01:25:40;100546.69;;;-0.68;82.99
61645;BME280;47553;52.428;13.382;2022-12-11T01:27:45;100538.88;;;-0.71;82.06
61645;BME280;47553;52.428;13.382;2022-12-11T01:29:47;100535.28;;;-0.64;82.17
61645;BME280;47553;52.428;13.382;2022-12-11T01:31:49;100554.59;;;-0.71;81.96
61645;BME280;47553;52.428;13.382;2022-12-11T01:33:52;100542.41;;;-0.72;81.31
61645;BME280;47553;52.428;13.382;2022-12-11T01:35:55;100546.59;;;-0.62;83.49
61645;BME280;47553;52.428;13.382;2022-12-11T01:37:57;100553.72;;;-0.72;83.12
61645;BME280;47553;52.428;13.382;2022-12-11T01:39:59;100541.81;;;-0.92;83.57
61645;BME280;47553;52.428;13.382;2022-12-11T01:42:01;100542.44;;;-0.75;83.07
61645;BME280;47553;52.428;13.382;2022-12-11T01:44:05;100544.84;;;-0.61;82.62
61645;BME280;47553;52.428;13.382;2022-12-11T01:46:07;100542.25;;;-0.63;83.14
61645;BME280;47553;52.428;13.382;2022-12-11T01:48:12;100551.19;;;-0.76;82.84
61645;BME280;47553;52.428;13.382;2022-12-11T01:50:14;100543.41;;;-0.82;83.35
61645;BME280;47553;52.428;13.382;2022-12-11T01:52:26;100547.50;;;-0.63;83.47
61645;BME280;47553;52.428;13.382;2022-12-11T01:54:31;100543.84;;;-0.53;81.48
61645;BME280;47553;52.428;13.382;2022-12-11T01:56:34;100545.75;;;-0.62;82.27
61645;BME280;47553;52.428;13.382;2022-12-11T01:58:40;100551.22;;;-0.79;83.08
61645;BME280;47553;52.428;13.382;2022-12-11T02:00:42;100553.53;;;-0.59;84.48
61645;BME280;47553;52.428;13.382;2022-12-11T02:02:44;100553.72;;;-0.70;82.23
61645;BME280;47553;52.428;13.382;2022-12-11T02:04:46;100545.69;;;-0.59;80.85
61645;BME280;47553;52.428;13.382;2022-12-11T02:06:49;100549.66;;;-0.91;83.17
61645;BME280;47553;52.428;13.382;2022-12-11T02:08:52;100542.44;;;-0.75;84.06
61645;BME280;47553;52.428;13.382;2022-12-11T02:11:01;100531.25;;;-0.86;83.43
61645;BME280;47553;52.428;13.382;2022-12-11T02:13:12;100555.56;;;-0.77;83.91
61645;BME280;47553;52.428;13.382;2022-12-11T02:15:22;100552.72;;;-0.63;84.00
61645;BME280;47553;52.428;13.382;2022-12-11T02:17:31;100551.00;;;-0.64;83.47
61645;BME280;47553;52.428;13.382;2022-12-11T02:19:46;100544.03;;;-0.65;83.00
61645;BME280;47553;52.428;13.382;2022-12-11T02:21:52;100557.13;;;-0.65;83.36
61645;BME280;47553;52.428;13.382;2022-12-11T02:24:17;100552.91;;;-0.74;84.31
61645;BME280;47553;52.428;13.382;2022-12-11T02:26:48;100542.41;;;-0.72;83.87
61645;BME280;47553;52.428;13.382;2022-12-11T02:28:57;100553.72;;;-0.70;84.45
61645;BME280;47553;52.428;13.382;2022-12-11T02:31:03;100538.03;;;-0.72;84.67
61645;BME280;47553;52.428;13.382;2022-12-11T02:33:08;100558.63;;;-0.50;84.76
61645;BME280;47553;52.428;13.382;2022-12-11T02:35:15;100549.38;;;-0.71;83.19
61645;BME280;47553;52.428;13.382;2022-12-11T02:37:20;100530.97;;;-0.68;84.63
61645;BME280;47553;52.428;13.382;2022-12-11T02:39:24;100551.09;;;-0.70;84.77
61645;BME280;47553;52.428;13.382;2022-12-11T02:41:28;100536.31;;;-0.74;83.56
61645;BME280;47553;52.428;13.382;2022-12-11T02:43:31;100542.63;;;-0.87;83.57
61645;BME280;47553;52.428;13.382;2022-12-11T02:45:38;100526.78;;;-0.80;84.36
61645;BME280;47553;52.428;13.382;2022-12-11T02:47:42;100535.34;;;-0.67;84.12
61645;BME280;47553;52.428;13.382;2022-12-11T02:49:48;100543.50;;;-0.88;83.24
61645;BME280;47553;52.428;13.382;2022-12-11T02:51:51;100547.72;;;-0.78;84.08
61645;BME280;47553;52.428;13.382;2022-12-11T02:53:55;100541.53;;;-0.73;84.79
61645;BME280;47553;52.428;13.382;2022-12-11T02:56:03;100539.59;;;-0.60;83.80
61645;BME280;47553;52.428;13.382;2022-12-11T02:58:12;100544.34;;;-0.86;84.14
61645;BME280;47553;52.428;13.382;2022-12-11T03:00:16;100543.53;;;-0.90;85.94
61645;BME280;47553;52.428;13.382;2022-12-11T03:02:19;100533.84;;;-0.83;85.98
61645;BME280;47553;52.428;13.382;2022-12-11T03:04:21;100533.78;;;-0.80;85.78
61645;BME280;47553;52.428;13.382;2022-12-11T03:06:27;100537.47;;;-0.93;85.34
61645;BME280;47553;52.428;13.382;2022-12-11T03:08:29;100539.72;;;-0.69;85.65
61645;BME280;47553;52.428;13.382;2022-12-11T03:10:31;100540.47;;;-0.61;85.99
61645;BME280;47553;52.428;13.382;2022-12-11T03:12:35;100535.34;;;-0.67;85.42
61645;BME280;47553;52.428;13.382;2022-12-11T03:14:38;100526.28;;;-0.48;85.01
61645;BME280;47553;52.428;13.382;2022-12-11T03:16:47;100533.09;;;-0.38;85.06
61645;BME280;47553;52.428;13.382;2022-12-11T03:19:00;100541.34;;;-0.60;84.09
61645;BME280;47553;52.428;13.382;2022-12-11T03:21:05;100539.63;;;-0.63;84.43
61645;BME280;47553;52.428;13.382;2022-12-11T03:23:14;100543.44;;;-0.84;86.05
61645;BME280;47553;52.428;13.382;2022-12-11T03:25:21;100547.00;;;-0.88;85.75
61645;BME280;47553;52.428;13.382;2022-12-11T03:27:26;100540.97;;;-0.94;87.01
61645;BME280;47553;52.428;13.382;2022-12-11T03:29:35;100544.25;;;-0.80;86.13
61645;BME280;47553;52.428;13.382;2022-12-11T03:31:41;100539.22;;;-0.94;86.26
61645;BME280;47553;52.428;13.382;2022-12-11T03:33:45;100529.53;;;-0.87;86.08
61645;BME280;47553;52.428;13.382;2022-12-11T03:35:51;100553.28;;;-1.03;86.49
61645;BME280;47553;52.428;13.382;2022-12-11T03:37:55;100546.34;;;-1.07;86.65
61645;BME280;47553;52.428;13.382;2022-12-11T03:40:02;100539.28;;;-0.98;86.96
61645;BME280;47553;52.428;13.382;2022-12-11T03:42:07;100542.66;;;-0.89;85.36
61645;BME280;47553;52.428;13.382;2022-12-11T03:44:11;100538.97;;;-0.77;86.90
61645;BME280;47553;52.428;13.382;2022-12-11T03:46:15;100541.50;;;-0.71;86.44
61645;BME280;47553;52.428;13.382;2022-12-11T03:48:17;100534.41;;;-0.64;86.51
61645;BME280;47553;52.428;13.382;2022-12-11T03:50:21;100538.16;;;-0.81;85.97
61645;BME280;47553;52.428;13.382;2022-12-11T03:52:26;100535.44;;;-0.73;86.66
61645;BME280;47553;52.428;13.382;2022-12-11T03:54:30;100537.16;;;-0.72;87.26
61645;BME280;47553;52.428;13.382;2022-12-11T03:56:33;100538.41;;;-0.97;87.58
61645;BME280;47553;52.428;13.382;2022-12-11T03:58:36;100518.38;;;-1.02;88.32
61645;BME280;47553;52.428;13.382;2022-12-11T04:00:37;100525.19;;;-0.90;86.31
61645;BME280;47553;52.428;13.382;2022-12-11T04:02:39;100537.94;;;-0.65;87.91
61645;BME280;47553;52.428;13.382;2022-12-11T04:04:41;100517.13;;;-0.75;87.07
61645;BME280;47553;52.428;13.382;2022-12-11T04:06:43;100518.97;;;-0.81;86.16
61645;BME280;47553;52.428;13.382;2022-12-11T04:08:46;100521.41;;;-0.69;85.89
61645;BME280;47553;52.428;13.382;2022-12-11T04:10:48;100527.00;;;-0.93;86.23
61645;BME280;47553;52.428;13.382;2022-12-11T04:12:50;100532.09;;;-0.84;87.28
61645;BME280;47553;52.428;13.382;2022-12-11T04:14:51;100534.69;;;-0.81;88.17
61645;BME280;47553;52.428;13.382;2022-12-11T04:16:53;100526.69;;;-0.72;87.99
61645;BME280;47553;52.428;13.382;2022-12-11T04:18:55;100536.31;;;-0.74;88.29
61645;BME280;47553;52.428;13.382;2022-12-11T04:20:57;100535.69;;;-0.91;88.74
61645;BME280;47553;52.428;13.382;2022-12-11T04:22:58;100538.06;;;-0.75;87.16
61645;BME280;47553;52.428;13.382;2022-12-11T04:25:04;100528.31;;;-0.65;87.73
61645;BME280;47553;52.428;13.382;2022-12-11T04:27:06;100526.81;;;-0.81;86.54
61645;BME280;47553;52.428;13.382;2022-12-11T04:29:08;100530.28;;;-0.79;86.87
61645;BME280;47553;52.428;13.382;2022-12-11T04:31:10;100525.88;;;-0.76;87.90
61645;BME280;47553;52.428;13.382;2022-12-11T04:33:12;100526.63;;;-0.69;87.92
61645;BME280;47553;52.428;13.382;2022-12-11T04:35:14;100511.00;;;-0.75;87.83
61645;BME280;47553;52.428;13.382;2022-12-11T04:37:16;100521.63;;;-0.84;86.35
61645;BME280;47553;52.428;13.382;2022-12-11T04:39:17;100516.25;;;-0.75;87.41
61645;BME280;47553;52.428;13.382;2022-12-11T04:41:20;100512.97;;;-0.89;87.55
61645;BME280;47553;52.428;13.382;2022-12-11T04:43:22;100516.00;;;-0.60;87.89
61645;BME280;47553;52.428;13.382;2022-12-11T04:45:23;100513.38;;;-0.58;87.71
61645;BME280;47553;52.428;13.382;2022-12-11T04:47:25;100516.16;;;-0.69;88.12
61645;BME280;47553;52.428;13.382;2022-12-11T04:49:26;100498.78;;;-0.75;87.26
61645;BME280;47553;52.428;13.382;2022-12-11T04:51:28;100496.69;;;-0.53;89.72
61645;BME280;47553;52.428;13.382;2022-12-11T04:53:30;100508.97;;;-0.56;89.37
61645;BME280;47553;52.428;13.382;2022-12-11T04:55:32;100508.78;;;-0.46;87.14
61645;BME280;47553;52.428;13.382;2022-12-11T04:57:35;100516.09;;;-0.66;88.34
61645;BME280;47553;52.428;13.382;2022-12-11T04:59:36;100513.69;;;-0.78;88.29
61645;BME280;47553;52.428;13.382;2022-12-11T05:01:40;100517.78;;;-0.62;87.49
61645;BME280;47553;52.428;13.382;2022-12-11T05:03:42;100514.66;;;-0.85;88.80
61645;BME280;47553;52.428;13.382;2022-12-11T05:05:46;100518.88;;;-0.75;88.86
61645;BME280;47553;52.428;13.382;2022-12-11T05:07:47;100512.09;;;-0.88;88.27
61645;BME280;47553;52.428;13.382;2022-12-11T05:09:49;100511.19;;;-0.87;88.95
61645;BME280;47553;52.428;13.382;2022-12-11T05:11:51;100512.88;;;-0.83;88.97
61645;BME280;47553;52.428;13.382;2022-12-11T05:13:54;100505.81;;;-0.78;89.19
61645;BME280;47553;52.428;13.382;2022-12-11T05:15:56;100507.47;;;-0.71;89.71
61645;BME280;47553;52.428;13.382;2022-12-11T05:17:58;100502.81;;;-1.12;88.87
61645;BME280;47553;52.428;13.382;2022-12-11T05:19:59;100507.94;;;-1.05;89.93
61645;BME280;47553;52.428;13.382;2022-12-11T05:22:01;100504.00;;;-1.36;91.44
61645;BME280;47553;52.428;13.382;2022-12-11T05:24:03;100499.41;;;-1.17;92.12
61645;BME280;47553;52.428;13.382;2022-12-11T05:26:06;100503.00;;;-1.26;89.59
61645;BME280;47553;52.428;13.382;2022-12-11T05:28:08;100510.22;;;-1.43;92.70
61645;BME280;47553;52.428;13.382;2022-12-11T05:30:12;100501.34;;;-1.33;91.26
61645;BME280;47553;52.428;13.382;2022-12-11T05:32:13;100500.59;;;-1.41;91.53
61645;BME280;47553;52.428;13.382;2022-12-11T05:34:15;100503.13;;;-1.35;91.35
61645;BME280;47553;52.428;13.382;2022-12-11T05:36:19;100504.66;;;-1.19;92.42
61645;BME280;47553;52.428;13.382;2022-12-11T05:38:21;100499.25;;;-1.07;92.19
61645;BME280;47553;52.428;13.382;2022-12-11T05:40:23;100495.09;;;-1.23;91.52
61645;BME280;47553;52.428;13.382;2022-12-11T05:42:24;100491.28;;;-0.97;91.47
61645;BME280;47553;52.428;13.382;2022-12-11T05:44:29;100495.84;;;-1.13;90.19
61645;BME280;47553;52.428;13.382;2022-12-11T05:46:32;100492.47;;;-1.21;92.27
61645;BME280;47553;52.428;13.382;2022-12-11T05:48:34;100495.31;;;-1.38;92.20
61645;BME280;47553;52.428;13.382;2022-12-11T05:50:36;100500.31;;;-1.21;92.35
61645;BME280;47553;52.428;13.382;2022-12-11T05:52:38;100501.09;;;-1.15;92.28
61645;BME280;47553;52.428;13.382;2022-12-11T05:54:39;100499.25;;;-1.07;92.85
61645;BME280;47553;52.428;13.382;2022-12-11T05:56:41;100494.41;;;-0.74;92.46
61645;BME280;47553;52.428;13.382;2022-12-11T05:58:45;100482.31;;;-0.83;90.29
61645;BME280;47553;52.428;13.382;2022-12-11T06:00:47;100494.53;;;-0.82;89.73
61645;BME280;47553;52.428;13.382;2022-12-11T06:02:50;100464.31;;;-1.06;91.46
61645;BME280;47553;52.428;13.382;2022-12-11T06:04:52;100485.19;;;-0.98;91.70
61645;BME280;47553;52.428;13.382;2022-12-11T06:06:54;100478.97;;;-0.91;90.84
61645;BME280;47553;52.428;13.382;2022-12-11T06:08:57;100493.13;;;-1.06;90.23
61645;BME280;47553;52.428;13.382;2022-12-11T06:10:59;100491.38;;;-1.05;90.66
61645;BME280;47553;52.428;13.382;2022-12-11T06:13:00;100481.59;;;-0.92;92.14
61645;BME280;47553;52.428;13.382;2022-12-11T06:15:02;100493.56;;;-0.76;92.05
61645;BME280;47553;52.428;13.382;2022-12-11T06:17:04;100484.91;;;-0.81;90.74
61645;BME280;47553;52.428;13.382;2022-12-11T06:19:12;100486.66;;;-0.80;91.17
61645;BME280;47553;52.428;13.382;2022-12-11T06:21:15;100493.81;;;-0.91;90.05
61645;BME280;47553;52.428;13.382;2022-12-11T06:23:17;100495.53;;;-0.90;90.45
61645;BME280;47553;52.428;13.382;2022-12-11T06:25:18;100496.50;;;-0.96;91.79
61645;BME280;47553;52.428;13.382;2022-12-11T06:27:20;100491.94;;;-0.83;92.28
61645;BME280;47553;52.428;13.382;2022-12-11T06:29:22;100486.09;;;-1.04;93.32
61645;BME280;47553;52.428;13.382;2022-12-11T06:31:23;100489.56;;;-1.00;92.49
61645;BME280;47553;52.428;13.382;2022-12-11T06:33:25;100448.13;;;-1.32;90.35
61645;BME280;47553;52.428;13.382;2022-12-11T06:35:28;100483.50;;;-1.04;89.75
61645;BME280;47553;52.428;13.382;2022-12-11T06:37:30;100487.00;;;-1.05;90.83
61645;BME280;47553;52.428;13.382;2022-12-11T06:39:31;100489.47;;;-0.94;91.40
61645;BME280;47553;52.428;13.382;2022-12-11T06:41:33;100486.22;;;-1.11;90.98
61645;BME280;47553;52.428;13.382;2022-12-11T06:43:36;100491.34;;;-1.04;91.70
61645;BME280;47553;52.428;13.382;2022-12-11T06:45:40;100488.84;;;-1.11;91.95
61645;BME280;47553;52.428;13.382;2022-12-11T06:47:42;100497.06;;;-0.77;90.68
61645;BME280;47553;52.428;13.382;2022-12-11T06:49:43;100481.00;;;-1.13;90.90
61645;BME280;47553;52.428;13.382;2022-12-11T06:51:46;100497.28;;;-0.89;90.61
61645;BME280;47553;52.428;13.382;2022-12-11T06:53:50;100504.09;;;-0.79;88.98
61645;BME280;47553;52.428;13.382;2022-12-11T06:55:51;100495.91;;;-1.18;89.69
61645;BME280;47553;52.428;13.382;2022-12-11T06:57:53;100497.59;;;-1.14;90.31
61645;BME280;47553;52.428;13.382;2022-12-11T06:59:54;100512.13;;;-0.91;89.11
61645;BME280;47553;52.428;13.382;2022-12-11T07:01:56;100503.69;;;-1.13;87.64
61645;BME280;47553;52.428;13.382;2022-12-11T07:03:58;100505.50;;;-1.17;87.73
61645;BME280;47553;52.428;13.382;2022-12-11T07:06:01;100509.16;;;-1.28;84.10
61645;BME280;47553;52.428;13.382;2022-12-11T07:08:04;100502.72;;;-1.71;85.22
61645;BME280;47553;52.428;13.382;2022-12-11T07:10:07;100508.91;;;-1.81;84.12
61645;BME280;47553;52.428;13.382;2022-12-11T07:12:09;100501.81;;;-1.70;83.14
61645;BME280;47553;52.428;13.382;2022-12-11T07:14:10;100507.03;;;-1.67;81.77
61645;BME280;47553;52.428;13.382;2022-12-11T07:16:14;100504.41;;;-1.68;82.34
61645;BME280;47553;52.428;13.382;2022-12-11T07:18:16;100518.50;;;-1.81;82.70
61645;BME280;47553;52.428;13.382;2022-12-11T07:20:17;100512.47;;;-1.88;82.73
61645;BME280;47553;52.428;13.382;2022-12-11T07:22:19;100503.59;;;-1.72;81.84
61645;BME280;47553;52.428;13.382;2022-12-11T07:24:22;100505.41;;;-1.80;82.42
61645;BME280;47553;52.428;13.382;2022-12-11T07:26:23;100502.84;;;-1.84;82.32
61645;BME280;47553;52.428;13.382;2022-12-11T07:28:25;100495.19;;;-2.01;82.35
61645;BME280;47553;52.428;13.382;2022-12-11T07:30:27;100504.63;;;-1.89;82.33
61645;BME280;47553;52.428;13.382;2022-12-11T07:32:28;100496.78;;;-1.88;80.69
61645;BME280;47553;52.428;13.382;2022-12-11T07:34:30;100505.63;;;-2.01;81.05
61645;BME280;47553;52.428;13.382;2022-12-11T07:36:32;100510.69;;;-1.86;81.19
61645;BME280;47553;52.428;13.382;2022-12-11T07:38:34;100519.41;;;-1.87;80.92
61645;BME280;47553;52.428;13.382;2022-12-11T07:40:37;100527.91;;;-1.63;79.99
61645;BME280;47553;52.428;13.382;2022-12-11T07:42:38;100514.13;;;-1.81;80.09
61645;BME280;47553;52.428;13.382;2022-12-11T07:44:47;100520.28;;;-1.86;81.26
61645;BME280;47553;52.428;13.382;2022-12-11T07:46:48;100514.06;;;-1.72;81.38
61645;BME280;47553;52.428;13.382;2022-12-11T07:48:50;100516.56;;;-1.64;80.87
61645;BME280;47553;52.428;13.382;2022-12-11T07:50:52;100518.53;;;-1.84;80.48
61645;BME280;47553;52.428;13.382;2022-12-11T07:52:53;100524.47;;;-1.69;82.36
61645;BME280;47553;52.428;13.382;2022-12-11T07:54:55;100518.22;;;-1.55;81.23
61645;BME280;47553;52.428;13.382;2022-12-11T07:56:58;100510.09;;;-1.34;78.37
61645;BME280;47553;52.428;13.382;2022-12-11T07:59:00;100516.09;;;-1.26;77.89
61645;BME280;47553;52.428;13.382;2022-12-11T08:01:03;100521.78;;;-1.61;78.73
61645;BME280;47553;52.428;13.382;2022-12-11T08:03:04;100516.69;;;-1.76;79.47
61645;BME280;47553;52.428;13.382;2022-12-11T08:05:07;100520.13;;;-1.70;80.41
61645;BME280;47553;52.428;13.382;2022-12-11T08:07:09;100515.94;;;-1.86;79.99
61645;BME280;47553;52.428;13.382;2022-12-11T08:09:11;100520.88;;;-1.58;80.21
61645;BME280;47553;52.428;13.382;2022-12-11T08:11:21;100510.59;;;-1.77;79.73
61645;BME280;47553;52.428;13.382;2022-12-11T08:13:24;100507.31;;;-1.94;79.20
61645;BME280;47553;52.428;13.382;2022-12-11T08:15:26;100528.97;;;-1.83;80.36
61645;BME280;47553;52.428;13.382;2022-12-11T08:17:28;100524.59;;;-1.81;79.42
61645;BME280;47553;52.428;13.382;2022-12-11T08:19:34;100525.53;;;-1.86;79.83
61645;BME280;47553;52.428;13.382;2022-12-11T08:21:35;100527.16;;;-1.78;79.97
61645;BME280;47553;52.428;13.382;2022-12-11T08:23:37;100522.00;;;-1.84;80.02
61645;BME280;47553;52.428;13.382;2022-12-11T08:25:39;100524.28;;;-1.52;79.61
61645;BME280;47553;52.428;13.382;2022-12-11T08:27:40;100529.56;;;-1.56;79.50
61645;BME280;47553;52.428;13.382;2022-12-11T08:29:43;100525.19;;;-1.56;78.85
61645;BME280;47553;52.428;13.382;2022-12-11T08:31:45;100531.22;;;-1.49;79.28
61645;BME280;47553;52.428;13.382;2022-12-11T08:33:47;100528.00;;;-1.71;79.10
61645;BME280;47553;52.428;13.382;2022-12-11T08:35:49;100536.75;;;-1.77;79.80
61645;BME280;47553;52.428;13.382;2022-12-11T08:37:50;100538.72;;;-2.00;80.34
61645;BME280;47553;52.428;13.382;2022-12-11T08:39:52;100536.91;;;-1.92;80.42
61645;BME280;47553;52.428;13.382;2022-12-11T08:41:53;100533.59;;;-2.09;81.38
61645;BME280;47553;52.428;13.382;2022-12-11T08:43:55;100534.53;;;-2.16;81.87
61645;BME280;47553;52.428;13.382;2022-12-11T08:45:59;100533.31;;;-1.83;81.22
61645;BME280;47553;52.428;13.382;2022-12-11T08:48:00;100535.16;;;-1.90;81.02
61645;BME280;47553;52.428;13.382;2022-12-11T08:50:03;100535.00;;;-1.78;80.44
61645;BME280;47553;52.428;13.382;2022-12-11T08:52:05;100526.53;;;-2.01;81.91
61645;BME280;47553;52.428;13.382;2022-12-11T08:54:08;100524.69;;;-1.90;81.41
61645;BME280;47553;52.428;13.382;2022-12-11T08:56:11;100528.34;;;-2.06;82.23
61645;BME280;47553;52.428;13.382;2022-12-11T08:58:13;100523.88;;;-1.95;82.51
61645;BME280;47553;52.428;13.382;2022-12-11T09:00:16;100528.78;;;-1.63;81.76
61645;BME280;47553;52.428;13.382;2022-12-11T09:02:19;100519.03;;;-1.50;80.18
61645;BME280;47553;52.428;13.382;2022-12-11T09:04:21;100506.66;;;-1.39;80.64
61645;BME280;47553;52.428;13.382;2022-12-11T09:06:23;100530.03;;;-1.24;78.33
61645;BME280;47553;52.428;13.382;2022-12-11T09:08:25;100531.81;;;-1.29;78.06
61645;BME280;47553;52.428;13.382;2022-12-11T09:10:27;100536.41;;;-1.46;79.26
61645;BME280;47553;52.428;13.382;2022-12-11T09:12:29;100528.44;;;-1.36;78.34
61645;BME280;47553;52.428;13.382;2022-12-11T09:14:30;100530.34;;;-1.50;79.38
61645;BME280;47553;52.428;13.382;2022-12-11T09:16:32;100532.91;;;-1.45;80.68
61645;BME280;47553;52.428;13.382;2022-12-11T09:18:35;100538.06;;;-1.38;79.51
61645;BME280;47553;52.428;13.382;2022-12-11T09:20:36;100535.81;;;-1.01;78.40
61645;BME280;47553;52.428;13.382;2022-12-11T09:22:38;100542.53;;;-0.81;77.51
61645;BME280;47553;52.428;13.382;2022-12-11T09:24:39;100537.53;;;-0.96;75.64
61645;BME280;47553;52.428;13.382;2022-12-11T09:26:41;100534.97;;;-1.03;75.68
61645;BME280;47553;52.428;13.382;2022-12-11T09:28:43;100535.94;;;-1.10;77.45
61645;BME280;47553;52.428;13.382;2022-12-11T09:30:48;100539.72;;;-1.32;77.59
61645;BME280;47553;52.428;13.382;2022-12-11T09:32:49;100530.41;;;-1.54;79.62
61645;BME280;47553;52.428;13.382;2022-12-11T09:34:52;100528.50;;;-1.42;79.52
61645;BME280;47553;52.428;13.382;2022-12-11T09:36:54;100529.41;;;-1.44;79.11
61645;BME280;47553;52.428;13.382;2022-12-11T09:38:58;100524.94;;;-1.35;78.98
61645;BME280;47553;52.428;13.382;2022-12-11T09:41:00;100518.66;;;-1.23;79.43
61645;BME280;47553;52.428;13.382;2022-12-11T09:43:05;100524.53;;;-1.06;79.85
61645;BME280;47553;52.428;13.382;2022-12-11T09:45:12;100519.84;;;-0.82;78.50
61645;BME280;47553;52.428;13.382;2022-12-11T09:47:19;100515.03;;;-1.13;77.88
61645;BME280;47553;52.428;13.382;2022-12-11T09:49:26;100512.28;;;-1.04;77.01
61645;BME280;47553;52.428;13.382;2022-12-11T09:51:37;100507.91;;;-1.03;77.17
61645;BME280;47553;52.428;13.382;2022-12-11T09:53:41;100505.28;;;-1.03;77.46
61645;BME280;47553;52.428;13.382;2022-12-11T09:55:48;100499.47;;;-1.22;78.31
61645;BME280;47553;52.428;13.382;2022-12-11T09:57:57;100503.41;;;-0.92;76.95
61645;BME280;47553;52.428;13.382;2022-12-11T10:00:21;100500.94;;;-1.03;79.48
61645;BME280;47553;52.428;13.382;2022-12-11T10:02:34;100499.38;;;-1.16;79.34
61645;BME280;47553;52.428;13.382;2022-12-11T10:04:48;100488.75;;;-1.05;81.86
61645;BME280;47553;52.428;13.382;2022-12-11T10:07:00;100501.84;;;-1.07;80.76
61645;BME280;47553;52.428;13.382;2022-12-11T10:09:12;100500.81;;;-0.93;80.01
61645;BME280;47553;52.428;13.382;2022-12-11T10:11:40;100494.97;;;-1.12;79.69
61645;BME280;47553;52.428;13.382;2022-12-11T10:13:49;100495.78;;;-1.09;78.97
61645;BME280;47553;52.428;13.382;2022-12-11T10:15:58;100473.00;;;-1.02;79.08
61645;BME280;47553;52.428;13.382;2022-12-11T10:18:03;100489.56;;;-1.00;79.14
61645;BME280;47553;52.428;13.382;2022-12-11T10:20:24;100481.47;;;-0.83;78.44
61645;BME280;47553;52.428;13.382;2022-12-11T10:22:30;100483.50;;;-1.04;79.48
61645;BME280;47553;52.428;13.382;2022-12-11T10:24:36;100479.06;;;-0.97;79.09
61645;BME280;47553;52.428;13.382;2022-12-11T10:27:12;100469.25;;;-0.84;77.50
61645;BME280;47553;52.428;13.382;2022-12-11T10:29:20;100466.91;;;-1.04;78.04
61645;BME280;47553;52.428;13.382;2022-12-11T10:31:30;100469.50;;;-1.03;78.79
61645;BME280;47553;52.428;13.382;2022-12-11T10:33:42;100464.34;;;-1.07;79.79
61645;BME280;47553;52.428;13.382;2022-12-11T10:35:49;100481.03;;;-1.14;81.08
61645;BME280;47553;52.428;13.382;2022-12-11T10:37:55;100478.28;;;-1.07;81.22
61645;BME280;47553;52.428;13.382;2022-12-11T10:39:57;100473.25;;;-1.19;80.01